Morganville, KS

4:07 PM CST on January 27, 2015 (GMT -0600)
Clay County Medical Center | Change Station
CLOSE
Current Station
Personal Weather Station
Location: Clay Center, KS
Elevation: 1274 ft
Nearby Weather Stations

Elev 1274 ft 39.39 °N, 97.12 °W | Updated 8 seconds ago

Clear
Clear
65.8 °F
Feels Like 65.8 °F
N
11.0
Wind Variable Wind from SE
Gusts 13.0 mph

Today
High -- | Low -- °F
--% Chance of Precip.
Yesterday
High -- | Low -- °F
Precip. -- in
7:40 AM 5:43 PM
First Quarter, 58% visible
Pressure 29.96 in
Visibility 10.0 miles
Clouds Clear
Dew Point 40 °F
Humidity 38%
Rainfall 0.00 in
Snow Depth Not available.
UV 1 out of 12
Pollen 1.10 out of 12
Air Quality Not available.
Flu Activity Not available.
METAR KCNK 272155Z AUTO 16011KT 10SM CLR 21/02 A2996 RMK AO2 SLP146 T02060017

More Conditions Fewer Conditions

Pressure 29.96 in
Visibility 10.0 miles
Clouds Clear
Dew Point 40 °F
Humidity 38%
Rainfall 0.00 in
Snow Depth Not available.
UV 1 out of 12
Pollen 1.10 out of 12
Air Quality Not available.
Flu Activity Not available.
METAR KCNK 272155Z AUTO 16011KT 10SM CLR 21/02 A2996 RMK AO2 SLP146 T02060017

More Conditions Fewer Conditions

10-Day Weather Forecast

Almanac

Astronomy

Jan. 27, 2015 Rise Set
Actual Time
Civil Twilight
Nautical Twilight
Astronomical Twilight
Moon
Length of Visible Light
Length of Day
Tomorrow will be .
, % of the Moon is Illuminated

Today's Extremes

State Highs State Lows

Community

WunderPhotos

Upload Photos

1,790,921 photos uploaded!

WunderBlogs® & News

Nearby

Air Quality

  Air Quality AQ Index Pollutant
Not available.

Snow Depth

Station Depth Elevation

Earthquake Activity

City Distance Mag. Time & Date
Minimum magnitude displayed is 2.5.

Coastal Water Temperatures

Place Temperature

Nearby Weather Stations